Time;durP1;ratioP1;P1;durP2;ratioP2;P2;SDS_P1;SDS_P2;PMS_P1;PMS_P2;Temp;Humidity;BMP_temperature;BMP_pressure;BME280_temperature;BME280_humidity;BME280_pressure;Samples;Min_cycle;Max_cycle;Signal;HPM_P1;HPM_P2
2024/02/19 00:00:14;;;;;;;;;8.00;7.67;;;;;13.68;73.64;102985.31;2022829;28;2745077;-78
2024/02/19 00:01:29;;;;;;;;;9.67;7.00;;;;;13.71;73.55;102990.56;2008146;28;2760824;-77
2024/02/19 00:02:39;;;;;;;;;7.33;5.67;;;;;13.68;73.45;102985.31;2007734;28;3470022;-78
2024/02/19 00:03:51;;;;;;;;;7.33;6.00;;;;;13.69;73.73;102995.88;2016696;28;2742989;-78
2024/02/19 00:05:02;;;;;;;;;7.00;7.00;;;;;13.67;73.24;103002.06;2005386;27;3459655;-77
2024/02/19 00:06:12;;;;;;;;;5.00;5.00;;;;;13.63;73.37;102992.41;2013374;27;2750287;-78
2024/02/19 00:07:23;;;;;;;;;5.67;5.67;;;;;13.58;73.27;102987.19;2021161;28;2750854;-78
2024/02/19 00:08:35;;;;;;;;;5.50;5.00;;;;;13.57;73.32;102980.13;2032949;28;2738835;-77
2024/02/19 00:09:45;;;;;;;;;6.67;6.67;;;;;13.58;73.54;102973.97;2007859;28;2747628;-77
2024/02/19 00:10:56;;;;;;;;;8.00;7.00;;;;;13.60;73.40;102982.75;2023272;28;2747125;-77
2024/02/19 00:12:07;;;;;;;;;5.00;5.00;;;;;13.60;73.52;102982.75;2013462;27;2740886;-77
2024/02/19 00:13:18;;;;;;;;;9.00;7.00;;;;;13.60;73.25;102982.75;2011912;28;2754575;-77
2024/02/19 00:14:29;;;;;;;;;9.33;9.00;;;;;13.64;72.88;102986.22;2021460;28;2763876;-77
2024/02/19 00:15:40;;;;;;;;;7.33;6.33;;;;;13.62;73.63;102970.41;2019843;28;2750311;-77
2024/02/19 00:16:53;;;;;;;;;10.00;8.50;;;;;13.65;73.44;102980.94;2019887;28;2751783;-77
2024/02/19 00:18:05;;;;;;;;;9.33;8.00;;;;;13.67;73.12;102973.00;2018389;27;2758748;-77
2024/02/19 00:19:16;;;;;;;;;7.33;6.67;;;;;13.67;72.90;102973.88;1992999;28;2750288;-78
2024/02/19 00:20:27;;;;;;;;;7.67;7.33;;;;;13.68;73.23;102978.25;2024212;28;2742970;-77
2024/02/19 00:21:37;;;;;;;;;6.67;6.67;;;;;13.65;72.77;102970.38;1983752;28;3454478;-77
2024/02/19 00:22:49;;;;;;;;;7.00;7.00;;;;;13.65;72.70;102974.78;2005135;28;2746087;-77
2024/02/19 00:24:00;;;;;;;;;6.33;6.33;;;;;13.65;73.09;102975.66;1993696;28;2749212;-77
2024/02/19 00:25:11;;;;;;;;;8.00;8.00;;;;;13.65;73.19;102974.78;2018456;28;2746124;-77
2024/02/19 00:26:22;;;;;;;;;7.33;7.00;;;;;13.66;72.70;102976.50;2005257;28;3464859;-77
2024/02/19 00:27:33;;;;;;;;;9.50;7.25;;;;;13.63;72.81;102972.13;2026866;27;1821102;-77
2024/02/19 00:28:45;;;;;;;;;10.00;7.00;;;;;13.60;72.63;102973.06;1998643;28;3492967;-77
2024/02/19 00:29:56;;;;;;;;;6.75;6.75;;;;;13.61;72.81;102971.28;2020245;28;1825790;-77
2024/02/19 00:31:10;;;;;;;;;8.33;5.33;;;;;13.61;72.63;102984.47;2007115;28;2757557;-78
2024/02/19 00:32:20;;;;;;;;;7.00;7.00;;;;;13.58;72.53;102973.97;1998740;28;2750277;-77
2024/02/19 00:33:31;;;;;;;;;4.33;4.33;;;;;13.58;72.34;102971.31;2018570;28;2754476;-78
2024/02/19 00:34:43;;;;;;;;;8.00;6.75;;;;;13.58;72.54;102979.25;2033757;27;2745180;-77
2024/02/19 00:35:54;;;;;;;;;9.33;9.33;;;;;13.53;72.86;102978.38;1996021;28;3477371;-77
2024/02/19 00:37:06;;;;;;;;;5.00;4.75;;;;;13.50;72.93;102972.25;2017988;28;2745873;-77
2024/02/19 00:38:17;;;;;;;;;10.33;7.00;;;;;13.49;72.65;102975.75;2001559;27;3492935;-77
2024/02/19 00:39:28;;;;;;;;;10.00;8.00;;;;;13.49;72.42;102975.75;2005890;28;3482612;-77
2024/02/19 00:40:40;;;;;;;;;10.00;9.33;;;;;13.47;72.78;102974.03;2020747;28;2749275;-77
2024/02/19 00:41:53;;;;;;;;;7.33;6.50;;;;;13.47;72.50;102972.25;2025917;27;2730462;-77
2024/02/19 00:43:03;;;;;;;;;3.00;2.33;;;;;13.48;72.40;102973.16;2011247;27;3450262;-77
2024/02/19 00:44:14;;;;;;;;;6.67;6.67;;;;;13.47;72.46;102977.53;2027185;28;3459644;-77
2024/02/19 00:45:25;;;;;;;;;5.00;5.00;;;;;13.46;72.68;102975.78;2012210;27;2752444;-77
2024/02/19 00:46:36;;;;;;;;;5.00;5.00;;;;;13.47;72.55;102977.53;2014878;28;2750280;-77
2024/02/19 00:47:47;;;;;;;;;7.33;7.00;;;;;13.46;72.77;102974.91;2008729;27;2746094;-77
2024/02/19 00:48:58;;;;;;;;;9.00;7.33;;;;;13.45;72.81;102986.38;2011700;28;2752463;-77
2024/02/19 00:50:09;;;;;;;;;8.00;8.00;;;;;13.39;72.70;102982.00;2021453;28;2748175;-77
2024/02/19 00:51:20;;;;;;;;;9.33;5.67;;;;;13.42;72.79;102984.63;2003899;28;2758761;-77
2024/02/19 00:52:31;;;;;;;;;9.67;5.00;;;;;13.39;72.90;102982.91;2012497;28;2758578;-77
2024/02/19 00:53:42;;;;;;;;;7.33;7.33;;;;;13.41;72.91;102984.66;2038488;28;1816967;-77
2024/02/19 00:54:52;;;;;;;;;10.00;8.00;;;;;13.38;73.20;102983.78;1991078;28;3475240;-77
2024/02/19 00:56:04;;;;;;;;;7.25;5.75;;;;;13.38;72.93;102983.78;2025128;28;2741959;-77
2024/02/19 00:57:15;;;;;;;;;9.67;5.33;;;;;13.41;73.07;102977.59;1998328;27;2763232;-77
2024/02/19 00:58:26;;;;;;;;;7.00;4.67;;;;;13.44;73.09;102974.94;2029743;27;2746135;-77
2024/02/19 00:59:36;;;;;;;;;6.67;6.67;;;;;13.45;72.91;102979.34;1979228;28;3463774;-77
2024/02/19 01:00:47;;;;;;;;;11.67;8.67;;;;;13.47;72.83;102984.59;2020888;28;3498146;-77
2024/02/19 01:01:58;;;;;;;;;4.33;4.33;;;;;13.49;72.95;102983.69;2014115;27;3452335;-77
2024/02/19 01:03:11;;;;;;;;;9.00;7.67;;;;;13.50;72.92;102979.28;2012764;28;2750852;-77
2024/02/19 01:04:21;;;;;;;;;5.00;3.00;;;;;13.53;73.01;102976.59;1993064;27;2746138;-77
2024/02/19 01:05:32;;;;;;;;;8.67;5.00;;;;;13.54;72.69;102977.47;2016606;27;2739848;-77
2024/02/19 01:06:43;;;;;;;;;9.33;5.33;;;;;13.52;73.06;102976.63;2008730;28;2755510;-77
2024/02/19 01:07:54;;;;;;;;;19.00;9.67;;;;;13.51;72.95;102983.66;2021054;28;3538269;-77
2024/02/19 01:09:07;;;;;;;;;4.00;3.25;;;;;13.50;73.07;102969.59;2033248;28;2740925;-77
2024/02/19 01:10:18;;;;;;;;;8.67;4.67;;;;;13.52;73.13;102977.50;2006342;28;2746173;-77
2024/02/19 01:11:30;;;;;;;;;7.00;4.00;;;;;13.52;73.19;102980.16;2002464;27;3457528;-77
2024/02/19 01:12:40;;;;;;;;;9.00;7.67;;;;;13.52;72.92;102976.63;2000570;28;2750280;-77
2024/02/19 01:13:51;;;;;;;;;8.00;5.00;;;;;13.52;72.71;102973.97;2021588;28;2747136;-77
2024/02/19 01:15:02;;;;;;;;;7.00;7.00;;;;;13.54;73.18;102982.75;1982824;28;2753485;-77
2024/02/19 01:16:15;;;;;;;;;5.83;4.50;;;;;13.55;72.87;102973.97;2035006;28;2746110;-77
2024/02/19 01:17:29;;;;;;;;;4.00;1.83;;;;;13.58;72.97;102980.09;2021809;28;2738234;-77
2024/02/19 01:18:42;;;;;;;;;4.00;4.00;;;;;13.58;72.75;102974.81;1996636;28;2747147;-77
2024/02/19 01:19:56;;;;;;;;;5.33;4.83;;;;;13.62;72.81;102986.25;2003994;27;2732566;-77
2024/02/19 01:21:07;;;;;;;;;9.00;4.33;;;;;13.62;72.82;102980.97;2033491;27;2754426;-77
2024/02/19 01:22:18;;;;;;;;;4.00;4.00;;;;;13.63;72.63;102987.13;2034240;27;2737761;-77
2024/02/19 01:23:29;;;;;;;;;8.00;5.00;;;;;13.61;72.65;102985.38;1986310;27;2747143;-77
2024/02/19 01:24:42;;;;;;;;;5.00;5.00;;;;;13.60;72.78;102981.00;2026749;28;2744019;-77
2024/02/19 01:25:52;;;;;;;;;5.67;4.00;;;;;13.60;72.64;102974.81;1978663;28;2752451;-77
2024/02/19 01:27:03;;;;;;;;;4.67;3.00;;;;;13.64;72.75;102992.38;2033532;28;2749255;-77
2024/02/19 01:28:14;;;;;;;;;8.67;7.33;;;;;13.64;72.64;102984.47;1985133;28;3471078;-77
2024/02/19 01:29:26;;;;;;;;;9.00;5.67;;;;;13.65;72.84;102988.88;2008583;28;2757662;-77
2024/02/19 01:30:39;;;;;;;;;5.83;5.83;;;;;13.64;72.60;102984.47;2032873;28;2741953;-77
2024/02/19 01:31:52;;;;;;;;;5.00;4.50;;;;;13.64;72.48;102981.81;2007453;28;2754928;-77
2024/02/19 01:33:03;;;;;;;;;5.00;4.00;;;;;13.64;72.61;102984.47;1985810;28;2750292;-78
2024/02/19 01:34:14;;;;;;;;;6.33;4.00;;;;;13.65;72.35;102986.22;1999537;28;2754460;-77
2024/02/19 01:35:25;;;;;;;;;12.00;6.67;;;;;13.64;72.33;102986.22;2009184;28;3494005;-77
2024/02/19 01:36:37;;;;;;;;;7.00;6.00;;;;;13.63;72.28;102982.69;2026814;28;2746134;-77
2024/02/19 01:37:47;;;;;;;;;9.67;7.67;;;;;13.61;72.56;102987.13;1994998;28;3482958;-77
2024/02/19 01:38:58;;;;;;;;;8.67;5.33;;;;;13.59;72.36;102984.50;2015087;28;2749257;-77
2024/02/19 01:40:10;;;;;;;;;9.00;5.67;;;;;13.58;72.07;102984.53;2021797;28;2753473;-79
2024/02/19 01:41:20;;;;;;;;;7.33;7.00;;;;;13.53;72.37;102981.88;2009826;28;2752431;-77
2024/02/19 01:42:31;;;;;;;;;8.00;7.00;;;;;13.53;72.48;102978.38;2023784;28;2746089;-77
2024/02/19 01:43:43;;;;;;;;;6.50;6.25;;;;;13.53;72.56;102989.81;2025300;28;2741949;-77
2024/02/19 01:44:54;;;;;;;;;5.33;4.33;;;;;13.54;72.49;102988.03;2000699;28;2750316;-76
2024/02/19 01:46:05;;;;;;;;;4.00;4.00;;;;;13.50;72.36;102987.22;2013766;28;2746111;-77
2024/02/19 01:47:17;;;;;;;;;7.67;6.33;;;;;13.50;72.63;102988.09;2006418;28;2750270;-78
2024/02/19 01:48:32;;;;;;;;;5.50;5.17;;;;;13.49;72.43;102991.63;2018859;28;2746099;-77
2024/02/19 01:49:42;;;;;;;;;9.00;7.00;;;;;13.50;72.62;102988.09;1969911;28;3471117;-77
2024/02/19 01:50:53;;;;;;;;;7.67;6.00;;;;;13.49;72.25;102988.09;2011889;27;2746122;-77
2024/02/19 01:52:05;;;;;;;;;9.33;5.00;;;;;13.48;72.81;102991.63;1978325;27;2763235;-77
2024/02/19 01:53:19;;;;;;;;;3.67;3.33;;;;;13.48;72.75;102989.84;2026766;27;2746122;-77
2024/02/19 01:54:29;;;;;;;;;5.00;5.00;;;;;13.44;72.84;102980.22;1992680;28;3467940;-77
2024/02/19 01:55:41;;;;;;;;;6.00;5.00;;;;;13.49;72.68;102996.91;2008938;28;2752422;-77
2024/02/19 01:56:53;;;;;;;;;9.33;7.67;;;;;13.46;72.70;102978.44;2005780;28;2760678;-76
2024/02/19 01:58:06;;;;;;;;;7.67;7.00;;;;;13.45;72.77;102981.97;1998599;28;3465874;-77
2024/02/19 01:59:21;;;;;;;;;10.67;5.67;;;;;13.44;72.71;102981.97;1992018;28;3488817;-76
2024/02/19 02:00:33;;;;;;;;;10.00;7.00;;;;;13.44;72.69;102972.28;2001601;28;2767004;-76
2024/02/19 02:01:44;;;;;;;;;7.00;5.00;;;;;13.46;72.85;102973.13;2004387;28;2752592;-77
2024/02/19 02:02:55;;;;;;;;;8.00;5.00;;;;;13.49;72.63;102975.75;2003377;28;3451318;-77
2024/02/19 02:04:06;;;;;;;;;10.00;7.67;;;;;13.52;72.33;102974.84;2007566;28;3489826;-76
2024/02/19 02:05:19;;;;;;;;;7.17;6.17;;;;;13.52;72.42;102976.63;2025450;27;2741987;-76
2024/02/19 02:06:33;;;;;;;;;7.67;6.17;;;;;13.49;72.34;102973.13;1999789;28;2746136;-76
2024/02/19 02:07:44;;;;;;;;;7.00;5.00;;;;;13.49;72.15;102973.13;1984169;28;2748217;-77
2024/02/19 02:08:56;;;;;;;;;6.75;6.75;;;;;13.44;72.18;102967.00;2028041;28;2746134;-77
2024/02/19 02:10:10;;;;;;;;;5.67;5.67;;;;;13.40;72.42;102962.66;2034017;28;2750325;-77
2024/02/19 02:11:20;;;;;;;;;7.00;7.00;;;;;13.41;72.31;102961.75;1984894;28;2748356;-77
2024/02/19 02:12:31;;;;;;;;;9.33;7.33;;;;;13.41;72.13;102967.03;2019150;28;2760773;-77
2024/02/19 02:13:42;;;;;;;;;9.00;7.00;;;;;13.43;72.33;102973.19;2022770;28;2748196;-77
2024/02/19 02:14:54;;;;;;;;;7.50;7.50;;;;;13.37;72.25;102960.91;2017431;28;2749208;-77
2024/02/19 02:16:05;;;;;;;;;8.00;5.67;;;;;13.39;72.44;102961.75;1995821;28;2745432;-77
2024/02/19 02:17:15;;;;;;;;;7.33;6.67;;;;;13.40;72.31;102957.38;1993840;27;2745186;-77
2024/02/19 02:18:26;;;;;;;;;12.00;9.00;;;;;13.41;72.20;102956.47;2017102;28;3501321;-77
2024/02/19 02:19:41;;;;;;;;;6.33;5.67;;;;;13.45;72.14;102965.25;2032829;28;2750777;-77
2024/02/19 02:20:51;;;;;;;;;6.33;6.33;;;;;13.44;72.34;102967.00;1986852;28;2746203;-77
2024/02/19 02:22:02;;;;;;;;;5.67;5.67;;;;;13.47;72.21;102972.25;2019688;28;2748166;-77
2024/02/19 02:23:14;;;;;;;;;9.00;7.33;;;;;13.46;72.26;102966.97;2025956;27;3473197;-77
2024/02/19 02:24:25;;;;;;;;;10.00;8.67;;;;;13.47;72.19;102971.38;2004531;28;3485685;-77
2024/02/19 02:25:36;;;;;;;;;4.67;2.67;;;;;13.43;72.31;102967.03;2012582;28;3466949;-76
2024/02/19 02:26:46;;;;;;;;;7.67;6.33;;;;;13.43;72.23;102967.91;2011107;27;2750303;-76
2024/02/19 02:27:57;;;;;;;;;10.00;8.00;;;;;13.44;72.47;102976.69;2022040;28;3484670;-76
2024/02/19 02:29:08;;;;;;;;;8.00;7.33;;;;;13.44;72.20;102967.00;2021199;27;3463782;-77
2024/02/19 02:30:19;;;;;;;;;8.33;7.33;;;;;13.47;72.45;102966.09;2021179;27;2746094;-77
2024/02/19 02:31:31;;;;;;;;;8.33;4.67;;;;;13.48;72.02;102973.16;2020845;28;2753485;-76
2024/02/19 02:32:42;;;;;;;;;7.33;7.33;;;;;13.51;72.32;102967.81;2009224;28;2745475;-76
2024/02/19 02:33:53;;;;;;;;;9.00;8.00;;;;;13.51;72.41;102973.09;2021823;27;3459652;-76
2024/02/19 02:35:05;;;;;;;;;10.67;5.67;;;;;13.53;72.13;102968.66;2029109;28;3497136;-76
2024/02/19 02:36:18;;;;;;;;;8.00;7.83;;;;;13.53;72.27;102960.75;2025518;27;2758629;-77
2024/02/19 02:37:30;;;;;;;;;9.67;8.00;;;;;13.55;72.38;102966.03;1977190;28;3481490;-77
2024/02/19 02:38:40;;;;;;;;;8.67;6.67;;;;;13.53;72.15;102963.38;2007137;28;2754431;-77
2024/02/19 02:39:52;;;;;;;;;8.00;7.00;;;;;13.52;72.47;102956.38;2012453;28;2748297;-76
2024/02/19 02:41:03;;;;;;;;;8.00;8.00;;;;;13.53;72.20;102955.47;2035201;27;3460648;-76
2024/02/19 02:42:14;;;;;;;;;8.00;6.33;;;;;13.54;72.33;102958.97;2032470;28;2748177;-76
2024/02/19 02:43:24;;;;;;;;;8.00;7.00;;;;;13.53;72.21;102966.03;1977245;27;2746516;-76
2024/02/19 02:44:35;;;;;;;;;10.00;7.00;;;;;13.55;71.81;102964.28;2017703;28;3486717;-76
2024/02/19 02:45:46;;;;;;;;;9.33;7.67;;;;;13.54;72.37;102972.19;2011547;27;3470079;-77
2024/02/19 02:46:57;;;;;;;;;9.33;8.33;;;;;13.54;72.46;102966.91;2003493;27;2748317;-77
2024/02/19 02:48:09;;;;;;;;;7.00;7.00;;;;;13.53;72.41;102966.03;2066602;27;2747194;-77
2024/02/19 02:49:22;;;;;;;;;6.83;4.67;;;;;13.52;72.42;102968.69;2034542;28;2748189;-76
2024/02/19 02:50:32;;;;;;;;;10.00;7.67;;;;;13.50;72.45;102972.25;1984573;28;2761892;-76
2024/02/19 02:51:44;;;;;;;;;6.67;3.00;;;;;13.49;72.63;102970.47;2035314;27;2752352;-77
2024/02/19 02:52:55;;;;;;;;;7.75;7.75;;;;;13.47;72.58;102964.34;1996965;28;1826416;-76
2024/02/19 02:54:06;;;;;;;;;12.00;7.50;;;;;13.48;72.63;102973.16;2013572;27;1829421;-76
2024/02/19 02:55:17;;;;;;;;;7.00;7.00;;;;;13.46;72.65;102969.63;2007543;28;3456514;-76
2024/02/19 02:56:29;;;;;;;;;9.67;9.33;;;;;13.46;72.68;102975.78;2016481;28;3481998;-77
2024/02/19 02:57:39;;;;;;;;;8.00;7.00;;;;;13.44;72.68;102969.66;1999307;28;2745135;-76
2024/02/19 02:58:51;;;;;;;;;9.00;8.00;;;;;13.45;72.98;102963.47;2015939;28;2756519;-76
2024/02/19 03:00:02;;;;;;;;;9.00;7.00;;;;;13.49;72.63;102964.31;2006378;28;2750317;-76
2024/02/19 03:01:25;;;;;;;;;6.75;6.75;;;;;13.47;72.73;102961.69;2021868;27;1816996;-76
2024/02/19 03:02:37;;;;;;;;;7.25;6.75;;;;;13.50;72.71;102966.97;2022294;28;1831335;-76
2024/02/19 03:03:47;;;;;;;;;7.00;5.33;;;;;13.51;72.59;102957.25;1991795;27;3466927;-76
2024/02/19 03:04:58;;;;;;;;;10.00;9.33;;;;;13.54;72.79;102972.19;2008390;27;2760725;-76
2024/02/19 03:06:10;;;;;;;;;11.00;5.67;;;;;13.56;72.65;102963.41;2016850;28;3482504;-76
2024/02/19 03:07:20;;;;;;;;;10.33;9.67;;;;;13.58;72.35;102972.19;2006572;28;3492955;-76
2024/02/19 03:08:31;;;;;;;;;8.67;8.33;;;;;13.60;72.43;102967.78;2014708;28;2752559;-77
2024/02/19 03:09:42;;;;;;;;;7.33;7.33;;;;;13.58;72.59;102966.03;2012972;28;3463767;-76
2024/02/19 03:10:54;;;;;;;;;7.00;5.50;;;;;13.61;72.59;102960.69;2033809;27;1827402;-76
2024/02/19 03:12:05;;;;;;;;;10.00;7.00;;;;;13.62;72.43;102967.75;1998662;28;2770106;-76
2024/02/19 03:13:16;;;;;;;;;7.67;7.33;;;;;13.61;72.21;102963.34;1999925;28;2734761;-77
2024/02/19 03:14:27;;;;;;;;;9.67;8.67;;;;;13.62;72.09;102965.13;2015391;28;3483592;-76
2024/02/19 03:15:39;;;;;;;;;8.00;7.25;;;;;13.61;72.40;102963.34;2031916;28;2740911;-76
2024/02/19 03:16:50;;;;;;;;;8.00;7.67;;;;;13.64;72.24;102970.38;1999156;28;2748547;-76
2024/02/19 03:18:00;;;;;;;;;11.33;8.67;;;;;13.64;72.23;102963.31;1992274;28;3485664;-76
2024/02/19 03:19:13;;;;;;;;;10.33;9.33;;;;;13.68;72.34;102970.31;2010620;28;3486698;-77
2024/02/19 03:20:23;;;;;;;;;10.33;8.33;;;;;13.66;72.37;102974.75;1998016;27;3486694;-76
2024/02/19 03:21:34;;;;;;;;;9.00;5.00;;;;;13.63;72.14;102972.13;2007538;28;3467977;-76
2024/02/19 03:22:45;;;;;;;;;10.00;7.33;;;;;13.65;72.08;102972.13;2017349;28;3485665;-76
2024/02/19 03:23:57;;;;;;;;;7.67;5.33;;;;;13.64;72.21;102973.88;2017313;28;3462768;-76
2024/02/19 03:25:08;;;;;;;;;9.00;8.00;;;;;13.65;72.50;102977.41;2000212;28;2746276;-77
2024/02/19 03:26:23;;;;;;;;;11.00;7.33;;;;;13.65;72.06;102975.66;2016066;28;3496142;-76
2024/02/19 03:27:37;;;;;;;;;7.83;6.67;;;;;13.61;72.32;102979.19;2025658;28;2735674;-76
2024/02/19 03:28:48;;;;;;;;;5.00;5.00;;;;;13.62;72.28;102978.31;1963889;28;2752495;-76
2024/02/19 03:29:59;;;;;;;;;7.00;7.00;;;;;13.64;72.61;102976.53;2017540;28;2741997;-76
2024/02/19 03:31:09;;;;;;;;;9.33;8.00;;;;;13.65;72.52;102978.31;1977199;28;3471088;-76
2024/02/19 03:32:21;;;;;;;;;8.67;8.33;;;;;13.66;72.21;102974.75;2024270;28;2747143;-77
2024/02/19 03:33:31;;;;;;;;;8.33;7.67;;;;;13.65;72.49;102978.31;1991445;27;1838827;-76
2024/02/19 03:34:43;;;;;;;;;7.25;7.00;;;;;13.66;72.29;102977.38;2015671;28;1817952;-77
2024/02/19 03:35:53;;;;;;;;;8.67;7.67;;;;;13.63;72.23;102980.06;1999213;27;3461748;-77
2024/02/19 03:37:04;;;;;;;;;8.67;8.00;;;;;13.60;72.40;102973.06;2006655;28;2752369;-77
2024/02/19 03:38:16;;;;;;;;;6.50;6.00;;;;;13.61;72.44;102973.91;2025055;28;2745077;-76
2024/02/19 03:39:28;;;;;;;;;10.00;7.33;;;;;13.61;72.65;102981.84;1998588;27;3486737;-76
2024/02/19 03:40:41;;;;;;;;;7.17;6.17;;;;;13.61;72.19;102973.91;2017384;28;2732591;-77
2024/02/19 03:41:52;;;;;;;;;10.67;7.67;;;;;13.60;72.36;102966.91;1977521;28;3484641;-77
2024/02/19 03:43:03;;;;;;;;;10.00;8.00;;;;;13.62;72.45;102975.69;2013414;28;3487736;-76
2024/02/19 03:44:15;;;;;;;;;7.00;5.33;;;;;13.60;72.25;102965.13;2006397;28;2750308;-76
2024/02/19 03:45:25;;;;;;;;;9.67;8.00;;;;;13.63;72.18;102973.91;1999998;28;2742976;-76
2024/02/19 03:46:36;;;;;;;;;8.00;5.00;;;;;13.61;72.28;102971.28;2016956;28;2753386;-76
2024/02/19 03:47:48;;;;;;;;;8.00;4.33;;;;;13.61;72.43;102969.50;2014141;28;2748248;-76
2024/02/19 03:49:00;;;;;;;;;16.00;9.25;;;;;13.63;72.32;102973.91;2018300;28;1844067;-76
2024/02/19 03:50:11;;;;;;;;;8.00;5.00;;;;;13.63;72.30;102977.41;1992177;28;2751360;-77
2024/02/19 03:51:22;;;;;;;;;9.33;7.67;;;;;13.59;72.32;102970.41;1991400;28;3471058;-77
2024/02/19 03:52:32;;;;;;;;;8.00;8.00;;;;;13.60;72.24;102977.47;1994230;28;2748690;-77
2024/02/19 03:53:44;;;;;;;;;8.67;8.00;;;;;13.55;72.65;102973.97;2003210;28;2748228;-76
2024/02/19 03:54:55;;;;;;;;;9.00;7.33;;;;;13.56;72.37;102978.34;1992016;28;3471094;-76
2024/02/19 03:56:06;;;;;;;;;7.50;7.50;;;;;13.55;72.43;102968.69;2026911;28;1824296;-76
2024/02/19 03:57:17;;;;;;;;;7.00;6.00;;;;;13.55;72.23;102966.03;2021636;28;1823152;-77
2024/02/19 03:58:28;;;;;;;;;9.67;6.67;;;;;13.57;72.32;102974.84;1999588;28;3482547;-76
2024/02/19 03:59:39;;;;;;;;;9.00;8.00;;;;;13.57;72.42;102964.28;2020101;28;2750383;-76
2024/02/19 04:00:50;;;;;;;;;7.00;7.00;;;;;13.59;72.67;102970.41;2010670;27;2742966;-76
2024/02/19 04:02:01;;;;;;;;;10.33;9.33;;;;;13.60;72.32;102972.19;2008437;28;3498533;-76
2024/02/19 04:03:13;;;;;;;;;9.00;8.75;;;;;13.58;72.35;102974.81;2031250;27;1833727;-76
2024/02/19 04:04:23;;;;;;;;;14.67;9.67;;;;;13.58;72.33;102976.63;1999449;27;3497185;-76
2024/02/19 04:05:34;;;;;;;;;11.67;9.00;;;;;13.56;72.33;102975.69;2023350;28;3486686;-76
2024/02/19 04:06:46;;;;;;;;;9.75;8.00;;;;;13.54;72.36;102966.91;2029967;28;1825282;-76
2024/02/19 04:07:56;;;;;;;;;13.50;8.50;;;;;13.54;72.45;102973.06;1993795;28;2765919;-76
2024/02/19 04:09:08;;;;;;;;;7.50;6.75;;;;;13.52;72.29;102963.41;2030319;27;1823766;-76
2024/02/19 04:10:19;;;;;;;;;11.00;7.00;;;;;13.55;72.36;102969.56;1992112;28;3477778;-76
2024/02/19 04:11:30;;;;;;;;;8.67;8.33;;;;;13.54;72.36;102964.25;2012647;28;3461739;-76
2024/02/19 04:12:40;;;;;;;;;8.67;8.67;;;;;13.53;72.42;102965.19;2021244;28;2732546;-76
2024/02/19 04:13:51;;;;;;;;;8.00;7.00;;;;;13.53;72.55;102967.81;2013097;28;3465854;-76
2024/02/19 04:15:04;;;;;;;;;2.50;2.50;;;;;13.53;72.24;102968.66;2025623;27;2734632;-76
2024/02/19 04:16:17;;;;;;;;;8.67;7.00;;;;;13.53;72.20;102973.09;2042039;28;1827549;-76
2024/02/19 04:17:28;;;;;;;;;8.00;7.25;;;;;13.55;72.63;102971.31;2005362;28;1823304;-76
2024/02/19 04:18:40;;;;;;;;;10.50;8.75;;;;;13.57;72.29;102977.50;2022248;27;1829475;-76
2024/02/19 04:19:55;;;;;;;;;8.33;7.00;;;;;13.55;72.21;102973.97;1999519;27;3462728;-76
2024/02/19 04:21:06;;;;;;;;;13.50;10.00;;;;;13.50;72.18;102971.38;1999460;28;2781561;-77
2024/02/19 04:22:17;;;;;;;;;9.40;7.80;;;;;13.50;72.67;102980.16;2030274;27;1814391;-76
2024/02/19 04:23:28;;;;;;;;;10.00;8.00;;;;;13.49;72.53;102981.03;1977372;28;2759731;-76
2024/02/19 04:24:39;;;;;;;;;11.00;10.00;;;;;13.46;72.42;102975.78;2012860;28;2773184;-76
2024/02/19 04:25:50;;;;;;;;;15.00;11.67;;;;;13.48;72.72;102984.56;2013184;28;3505392;-77
2024/02/19 04:27:01;;;;;;;;;10.67;6.33;;;;;13.45;72.52;102978.44;2007422;27;3489855;-76
2024/02/19 04:28:12;;;;;;;;;12.00;10.00;;;;;13.44;72.44;102980.22;2012796;27;2782540;-76
2024/02/19 04:29:23;;;;;;;;;14.00;10.00;;;;;13.43;72.82;102975.84;2014766;28;2781494;-76
2024/02/19 04:30:34;;;;;;;;;13.00;12.00;;;;;13.42;72.88;102975.84;2013542;28;3516919;-76
2024/02/19 04:31:45;;;;;;;;;8.33;7.67;;;;;13.43;72.65;102977.59;2011930;28;2753490;-76
2024/02/19 04:32:55;;;;;;;;;7.33;7.33;;;;;13.40;72.84;102978.50;2000422;28;2745316;-76
2024/02/19 04:34:08;;;;;;;;;14.00;9.33;;;;;13.40;72.62;102978.50;2014484;28;3495032;-76
2024/02/19 04:35:19;;;;;;;;;14.33;9.67;;;;;13.39;72.68;102977.63;2000079;27;3485724;-76
2024/02/19 04:36:32;;;;;;;;;12.00;10.00;;;;;13.39;72.95;102976.72;2018532;28;1830498;-76
2024/02/19 04:37:43;;;;;;;;;9.00;9.00;;;;;13.35;72.85;102982.94;1977450;28;3453422;-76
2024/02/19 04:38:54;;;;;;;;;15.00;10.00;;;;;13.37;72.92;102983.78;2015996;28;2790884;-76
2024/02/19 04:40:07;;;;;;;;;11.00;9.00;;;;;13.36;72.89;102995.25;2015530;28;2767016;-76
2024/02/19 04:41:18;;;;;;;;;14.75;13.00;;;;;13.36;73.02;102995.25;1986778;28;1846083;-76
2024/02/19 04:42:29;;;;;;;;;8.33;7.33;;;;;13.34;72.98;103003.19;1992205;28;3459691;-76
2024/02/19 04:43:40;;;;;;;;;9.67;9.00;;;;;13.34;72.91;102999.66;2014035;28;2761787;-77
2024/02/19 04:44:51;;;;;;;;;11.67;10.00;;;;;13.34;72.83;103003.19;2028360;28;1815434;-77
2024/02/19 04:46:02;;;;;;;;;9.00;9.00;;;;;13.33;73.02;102996.16;1990682;28;2746099;-76
2024/02/19 04:47:13;;;;;;;;;9.00;5.00;;;;;13.31;72.90;102992.63;1994928;28;2744528;-76
2024/02/19 04:48:24;;;;;;;;;9.50;8.75;;;;;13.30;72.73;103004.13;2059804;27;1829481;-76
2024/02/19 04:49:35;;;;;;;;;13.50;11.00;;;;;13.32;73.30;103014.66;2027600;27;2795070;-77
2024/02/19 04:50:47;;;;;;;;;13.20;9.60;;;;;13.33;73.16;103011.13;2026376;27;1820172;-76
2024/02/19 04:52:00;;;;;;;;;14.33;10.50;;;;;13.32;72.98;103018.19;2028174;28;1827370;-76
2024/02/19 04:53:11;;;;;;;;;12.00;10.00;;;;;13.30;73.11;103006.75;1975181;28;3499198;-76
2024/02/19 04:54:22;;;;;;;;;15.75;10.50;;;;;13.34;73.22;103010.22;2027238;28;1845097;-76
2024/02/19 04:55:33;;;;;;;;;14.50;9.00;;;;;13.32;72.94;103006.72;1998973;28;2776314;-76
2024/02/19 04:56:45;;;;;;;;;16.00;10.50;;;;;13.34;73.25;103008.47;2016179;28;2783597;-76
2024/02/19 04:57:56;;;;;;;;;10.33;8.67;;;;;13.36;72.73;103004.03;2000565;28;3472119;-76
2024/02/19 04:59:07;;;;;;;;;14.00;9.50;;;;;13.39;72.75;103004.03;2007434;28;2767989;-76
2024/02/19 05:00:18;;;;;;;;;10.00;9.00;;;;;13.37;72.63;102997.00;2023837;28;1826324;-76
2024/02/19 05:01:32;;;;;;;;;10.33;7.33;;;;;13.38;72.79;102993.50;1987647;28;3486762;-77
2024/02/19 05:02:44;;;;;;;;;16.00;8.50;;;;;13.38;72.95;102985.56;2005215;27;1834706;-76
2024/02/19 05:03:54;;;;;;;;;4.00;4.00;;;;;13.39;72.69;102987.28;1990574;28;3455457;-76
2024/02/19 05:05:06;;;;;;;;;13.50;9.50;;;;;13.39;72.93;102990.81;2016417;28;2773232;-76
2024/02/19 05:06:17;;;;;;;;;11.33;9.00;;;;;13.41;72.80;102988.16;2029152;27;2755536;-76
2024/02/19 05:07:27;;;;;;;;;9.50;9.00;;;;;13.44;72.69;102988.13;2028301;27;2756519;-76
2024/02/19 05:08:39;;;;;;;;;13.00;8.00;;;;;13.45;72.50;102981.97;2009850;27;1842492;-76
2024/02/19 05:09:49;;;;;;;;;11.00;10.00;;;;;13.44;72.69;102982.84;1997069;27;2764800;-76
2024/02/19 05:11:00;;;;;;;;;13.00;10.50;;;;;13.47;72.66;102984.59;1994487;28;2769017;-76
2024/02/19 05:12:12;;;;;;;;;11.67;9.00;;;;;13.46;72.55;102983.72;2014523;27;3490828;-76
2024/02/19 05:13:23;;;;;;;;;12.50;9.50;;;;;13.48;72.71;102989.00;1995710;28;2777456;-76
2024/02/19 05:14:34;;;;;;;;;4.50;4.00;;;;;13.52;72.65;102992.47;1988231;28;2751299;-76
2024/02/19 05:15:45;;;;;;;;;12.00;10.67;;;;;13.52;72.61;102989.81;2020301;28;1844043;-76
2024/02/19 05:16:56;;;;;;;;;9.67;9.67;;;;;13.52;72.43;102992.47;1992380;28;3488800;-76
2024/02/19 05:18:07;;;;;;;;;16.00;11.50;;;;;13.47;72.20;102988.13;2014013;28;2790917;-76
2024/02/19 05:19:18;;;;;;;;;14.00;10.00;;;;;13.47;72.08;102998.69;2042329;27;3498127;-77
2024/02/19 05:20:29;;;;;;;;;15.50;9.00;;;;;13.43;71.89;102989.03;2055080;27;1848186;-76
2024/02/19 05:21:41;;;;;;;;;15.00;9.00;;;;;13.43;71.87;102996.97;1996737;27;2769018;-76
2024/02/19 05:22:51;;;;;;;;;17.00;12.00;;;;;13.42;71.69;102989.03;2004723;28;2799282;-76